Date,TemperatureHighF,TemperatureAvgF,TemperatureLowF,DewpointHighF,DewpointAvgF,DewpointLowF,HumidityHigh,HumidityAvg,HumidityLow,PressureMaxIn,PressureMinIn,WindSpeedMaxMPH,WindSpeedAvgMPH,GustSpeedMaxMPH,PrecipitationSumIn
2013-2-1,35,30,24,-100,-100,-100,0,0,100,0.00,40.00,0,-999,0,0.01
2013-2-2,32,24,14,-100,-100,-100,0,0,100,0.00,40.00,0,-999,0,0.01
2013-2-3,34,27,17,-100,-100,-100,0,0,100,0.00,40.00,0,-999,0,0.01
2013-2-4,35,32,30,-100,-100,-100,0,0,100,0.00,40.00,0,-999,0,0.01
2013-2-5,34,31,29,-100,-100,-100,0,0,100,0.00,40.00,0,-999,0,0.01
2013-2-6,34,30,25,-100,-100,-100,0,0,100,0.00,40.00,0,-999,0,0.01
2013-2-7,35,28,22,-100,-100,-100,0,0,100,0.00,40.00,0,-999,0,0.01
2013-2-8,41,34,24,-100,-100,-100,0,0,100,0.00,40.00,0,-999,0,0.02
2013-2-9,42,35,30,-100,-100,-100,0,0,100,0.00,40.00,0,-999,0,0.01
2013-2-10,43,35,27,-100,-100,-100,0,0,100,0.00,40.00,0,-999,0,0.04
2013-2-11,36,26,18,-100,-100,-100,0,0,100,0.00,40.00,0,-999,0,0.02
2013-2-12,38,29,20,-100,-100,-100,0,0,100,0.00,40.00,0,-999,0,0.01
2013-2-13,41,34,26,-100,-100,-100,0,0,100,0.00,40.00,0,-999,0,0.01
2013-2-14,41,32,22,-100,-100,-100,0,0,100,0.00,40.00,0,-999,0,0.02
2013-2-15,43,33,23,-100,-100,-100,0,0,100,0.00,40.00,0,-999,0,0.01
2013-2-16,46,32,20,-100,-100,-100,0,0,100,0.00,40.00,0,-999,0,0.02
2013-2-17,42,35,26,-100,-100,-100,0,0,100,0.00,40.00,0,-999,0,0.01
2013-2-18,41,30,21,-100,-100,-100,0,0,100,0.00,40.00,0,-999,0,0.02
2013-2-19,39,31,24,-100,-100,-100,0,0,100,0.00,40.00,0,-999,0,0.10
2013-2-20,41,31,23,-100,-100,-100,0,0,100,0.00,40.00,0,-999,0,0.01
2013-2-21,37,30,18,-100,-100,-100,0,0,100,0.00,40.00,0,-999,0,0.02
2013-2-22,35,31,27,-100,-100,-100,0,0,100,0.00,40.00,0,-999,0,0.42
2013-2-23,38,32,25,-100,-100,-100,0,0,100,0.00,40.00,0,-999,0,0.65
2013-2-24,35,27,15,-100,-100,-100,0,0,100,0.00,40.00,0,-999,0,0.15
2013-2-25,32,26,16,-100,-100,-100,0,0,100,0.00,40.00,0,-999,0,0.25
2013-2-26,32,24,13,-100,-100,-100,0,0,100,0.00,40.00,0,-999,0,0.13
2013-2-27,40,24,12,-100,-100,-100,0,0,100,0.00,40.00,0,-999,0,0.01
2013-2-28,36,31,22,-100,-100,-100,0,0,100,0.00,40.00,0,-999,0,0.07